sensor_id;sensor_type;location;lat;lon;timestamp;P1;durP1;ratioP1;P2;durP2;ratioP2
74788;SDS011;63313;48.258;12.518;2023-02-18T00:03:52;2.2600000000000002;;;1.6599999999999997;;
74788;SDS011;63313;48.258;12.518;2023-02-18T00:09:19;2.8600000000000003;;;1.8799999999999997;;
74788;SDS011;63313;48.258;12.518;2023-02-18T00:14:46;2.12;;;1.7899999999999998;;
74788;SDS011;63313;48.258;12.518;2023-02-18T00:20:13;3.7600000000000002;;;2.75;;
74788;SDS011;63313;48.258;12.518;2023-02-18T00:25:40;3.3600000000000003;;;1.51;;
74788;SDS011;63313;48.258;12.518;2023-02-18T00:31:07;2.7299999999999995;;;2.0200000000000005;;
74788;SDS011;63313;48.258;12.518;2023-02-18T00:36:35;2.88;;;2.1;;
74788;SDS011;63313;48.258;12.518;2023-02-18T00:42:02;4.94;;;1.95;;
74788;SDS011;63313;48.258;12.518;2023-02-18T00:47:29;7.51;;;2.25;;
74788;SDS011;63313;48.258;12.518;2023-02-18T00:52:56;2.4299999999999997;;;2.12;;
74788;SDS011;63313;48.258;12.518;2023-02-18T00:58:23;3.2700000000000005;;;2.19;;
74788;SDS011;63313;48.258;12.518;2023-02-18T01:03:50;4.37;;;2.71;;
74788;SDS011;63313;48.258;12.518;2023-02-18T01:09:17;2.4099999999999997;;;1.98;;
74788;SDS011;63313;48.258;12.518;2023-02-18T01:14:45;7.26;;;2.3899999999999997;;
74788;SDS011;63313;48.258;12.518;2023-02-18T01:20:12;4.15;;;2.37;;
74788;SDS011;63313;48.258;12.518;2023-02-18T01:25:40;5.709999999999999;;;2.2600000000000002;;
74788;SDS011;63313;48.258;12.518;2023-02-18T01:31:07;4.65;;;2.5300000000000002;;
74788;SDS011;63313;48.258;12.518;2023-02-18T01:36:35;4.210000000000001;;;2.1599999999999997;;
74788;SDS011;63313;48.258;12.518;2023-02-18T01:42:02;5.6;;;2.1900000000000004;;
74788;SDS011;63313;48.258;12.518;2023-02-18T01:47:29;3.7700000000000005;;;2.0300000000000002;;
74788;SDS011;63313;48.258;12.518;2023-02-18T01:52:56;5.199999999999999;;;2.5900000000000003;;
74788;SDS011;63313;48.258;12.518;2023-02-18T01:58:24;3.84;;;2.44;;
74788;SDS011;63313;48.258;12.518;2023-02-18T02:03:51;2.8899999999999997;;;2.1300000000000003;;
74788;SDS011;63313;48.258;12.518;2023-02-18T02:09:18;6.5;;;2.09;;
74788;SDS011;63313;48.258;12.518;2023-02-18T02:14:49;3.5200000000000005;;;1.8800000000000003;;
74788;SDS011;63313;48.258;12.518;2023-02-18T02:20:25;1.85;;;1.75;;
74788;SDS011;63313;48.258;12.518;2023-02-18T02:28:59;3.9899999999999998;;;2.24;;
74788;SDS011;63313;48.258;12.518;2023-02-18T02:34:33;3.66;;;1.7899999999999998;;
74788;SDS011;63313;48.258;12.518;2023-02-18T02:40:07;3.7600000000000002;;;2.2700000000000005;;
74788;SDS011;63313;48.258;12.518;2023-02-18T02:45:42;1.8199999999999998;;;1.44;;
74788;SDS011;63313;48.258;12.518;2023-02-18T02:51:12;1.5899999999999999;;;1.3599999999999999;;
74788;SDS011;63313;48.258;12.518;2023-02-18T02:56:40;1.6800000000000002;;;1.2200000000000002;;
74788;SDS011;63313;48.258;12.518;2023-02-18T03:02:12;1.3800000000000001;;;1.2800000000000002;;
74788;SDS011;63313;48.258;12.518;2023-02-18T03:07:49;3.3199999999999994;;;1.67;;
74788;SDS011;63313;48.258;12.518;2023-02-18T03:13:25;1.9100000000000001;;;1.67;;
74788;SDS011;63313;48.258;12.518;2023-02-18T03:18:56;2.7399999999999998;;;1.98;;
74788;SDS011;63313;48.258;12.518;2023-02-18T03:24:26;3.9299999999999997;;;2.17;;
74788;SDS011;63313;48.258;12.518;2023-02-18T03:29:56;2.6599999999999997;;;2.06;;
74788;SDS011;63313;48.258;12.518;2023-02-18T03:35:23;2.2600000000000002;;;1.9;;
74788;SDS011;63313;48.258;12.518;2023-02-18T03:40:50;2.5000000000000004;;;2.19;;
74788;SDS011;63313;48.258;12.518;2023-02-18T03:46:18;2.38;;;1.98;;
74788;SDS011;63313;48.258;12.518;2023-02-18T03:51:45;3.75;;;1.8699999999999999;;
74788;SDS011;63313;48.258;12.518;2023-02-18T03:57:12;4.85;;;2.22;;
74788;SDS011;63313;48.258;12.518;2023-02-18T04:02:39;3.2700000000000005;;;1.6700000000000004;;
74788;SDS011;63313;48.258;12.518;2023-02-18T04:08:07;3.6;;;1.8900000000000001;;
74788;SDS011;63313;48.258;12.518;2023-02-18T04:13:34;2.99;;;1.64;;
74788;SDS011;63313;48.258;12.518;2023-02-18T04:19:01;2.5999999999999996;;;1.2899999999999998;;
74788;SDS011;63313;48.258;12.518;2023-02-18T04:24:28;3.2400000000000007;;;1.58;;
74788;SDS011;63313;48.258;12.518;2023-02-18T04:29:55;2.4;;;1.59;;
74788;SDS011;63313;48.258;12.518;2023-02-18T04:35:22;3.5500000000000007;;;1.55;;
74788;SDS011;63313;48.258;12.518;2023-02-18T04:40:49;1.5999999999999999;;;1.37;;
74788;SDS011;63313;48.258;12.518;2023-02-18T04:46:16;2.2399999999999998;;;1.77;;
74788;SDS011;63313;48.258;12.518;2023-02-18T04:51:43;1.6299999999999997;;;1.41;;
74788;SDS011;63313;48.258;12.518;2023-02-18T04:57:10;1.59;;;1.49;;
74788;SDS011;63313;48.258;12.518;2023-02-18T05:02:37;2.4099999999999997;;;1.4;;
74788;SDS011;63313;48.258;12.518;2023-02-18T05:08:05;1.47;;;1.4;;
74788;SDS011;63313;48.258;12.518;2023-02-18T05:13:32;1.6600000000000001;;;1.2899999999999998;;
74788;SDS011;63313;48.258;12.518;2023-02-18T05:18:59;1.5;;;1.2200000000000002;;
74788;SDS011;63313;48.258;12.518;2023-02-18T05:24:26;2.1399999999999997;;;1.22;;
74788;SDS011;63313;48.258;12.518;2023-02-18T05:29:53;1.36;;;1.33;;
74788;SDS011;63313;48.258;12.518;2023-02-18T05:35:20;1.6800000000000002;;;1.44;;
74788;SDS011;63313;48.258;12.518;2023-02-18T05:40:47;2.0599999999999996;;;1.2;;
74788;SDS011;63313;48.258;12.518;2023-02-18T05:46:14;2.04;;;1.56;;
74788;SDS011;63313;48.258;12.518;2023-02-18T05:51:41;3.3600000000000003;;;1.7100000000000002;;
74788;SDS011;63313;48.258;12.518;2023-02-18T05:57:08;1.43;;;1.33;;
74788;SDS011;63313;48.258;12.518;2023-02-18T06:02:36;1.8699999999999999;;;1.49;;
74788;SDS011;63313;48.258;12.518;2023-02-18T06:08:03;1.67;;;1.28;;
74788;SDS011;63313;48.258;12.518;2023-02-18T06:13:30;1.73;;;1.6199999999999999;;
74788;SDS011;63313;48.258;12.518;2023-02-18T06:18:57;1.55;;;1.1600000000000001;;
74788;SDS011;63313;48.258;12.518;2023-02-18T06:24:24;2.6599999999999997;;;1.5;;
74788;SDS011;63313;48.258;12.518;2023-02-18T06:29:52;3.97;;;1.3300000000000003;;
74788;SDS011;63313;48.258;12.518;2023-02-18T06:35:19;1.27;;;1.1799999999999997;;
74788;SDS011;63313;48.258;12.518;2023-02-18T06:40:46;1.64;;;1.3800000000000001;;
74788;SDS011;63313;48.258;12.518;2023-02-18T06:46:13;1.6800000000000002;;;1.1199999999999997;;
74788;SDS011;63313;48.258;12.518;2023-02-18T06:51:40;1.7399999999999998;;;1.15;;
74788;SDS011;63313;48.258;12.518;2023-02-18T06:57:07;1.34;;;1.15;;
74788;SDS011;63313;48.258;12.518;2023-02-18T07:02:34;2.82;;;1.02;;
74788;SDS011;63313;48.258;12.518;2023-02-18T07:08:01;1.4100000000000001;;;1.3000000000000003;;
74788;SDS011;63313;48.258;12.518;2023-02-18T07:13:28;1.1099999999999999;;;1.04;;
74788;SDS011;63313;48.258;12.518;2023-02-18T07:18:55;1.18;;;1.1599999999999997;;
74788;SDS011;63313;48.258;12.518;2023-02-18T07:24:22;1.89;;;1.3800000000000001;;
74788;SDS011;63313;48.258;12.518;2023-02-18T07:29:50;1.2799999999999998;;;0.9200000000000002;;
74788;SDS011;63313;48.258;12.518;2023-02-18T07:35:17;0.86;;;0.86;;
74788;SDS011;63313;48.258;12.518;2023-02-18T07:40:44;2.09;;;1.09;;
74788;SDS011;63313;48.258;12.518;2023-02-18T07:46:11;2.0599999999999996;;;0.79;;
74788;SDS011;63313;48.258;12.518;2023-02-18T07:51:38;0.9200000000000002;;;0.9000000000000001;;
74788;SDS011;63313;48.258;12.518;2023-02-18T07:57:05;1.1700000000000002;;;1.0;;
74788;SDS011;63313;48.258;12.518;2023-02-18T08:02:32;0.97;;;0.97;;
74788;SDS011;63313;48.258;12.518;2023-02-18T08:07:59;1.1099999999999999;;;1.0899999999999999;;
74788;SDS011;63313;48.258;12.518;2023-02-18T08:13:26;1.5799999999999998;;;0.96;;
74788;SDS011;63313;48.258;12.518;2023-02-18T08:18:54;0.9100000000000001;;;0.8300000000000001;;
74788;SDS011;63313;48.258;12.518;2023-02-18T08:24:21;0.9200000000000002;;;0.9200000000000002;;
74788;SDS011;63313;48.258;12.518;2023-02-18T08:29:48;0.76;;;0.72;;
74788;SDS011;63313;48.258;12.518;2023-02-18T08:35:15;0.7;;;0.7;;
74788;SDS011;63313;48.258;12.518;2023-02-18T08:40:42;1.5599999999999998;;;0.8100000000000002;;
74788;SDS011;63313;48.258;12.518;2023-02-18T08:46:10;0.6699999999999999;;;0.6599999999999999;;
74788;SDS011;63313;48.258;12.518;2023-02-18T08:51:37;1.42;;;0.76;;
74788;SDS011;63313;48.258;12.518;2023-02-18T08:57:04;0.9199999999999999;;;0.6699999999999999;;
74788;SDS011;63313;48.258;12.518;2023-02-18T09:02:31;0.56;;;0.56;;
74788;SDS011;63313;48.258;12.518;2023-02-18T09:07:58;0.6799999999999999;;;0.6799999999999999;;
74788;SDS011;63313;48.258;12.518;2023-02-18T09:13:25;0.65;;;0.65;;
74788;SDS011;63313;48.258;12.518;2023-02-18T09:18:53;1.4300000000000002;;;0.6299999999999999;;
74788;SDS011;63313;48.258;12.518;2023-02-18T09:24:20;0.61;;;0.61;;
74788;SDS011;63313;48.258;12.518;2023-02-18T09:29:47;0.9400000000000001;;;0.9;;
74788;SDS011;63313;48.258;12.518;2023-02-18T09:35:14;0.68;;;0.6;;
74788;SDS011;63313;48.258;12.518;2023-02-18T09:40:42;1.37;;;0.8300000000000001;;
74788;SDS011;63313;48.258;12.518;2023-02-18T09:46:13;3.56;;;0.6799999999999999;;
74788;SDS011;63313;48.258;12.518;2023-02-18T09:51:43;0.6;;;0.6;;
74788;SDS011;63313;48.258;12.518;2023-02-18T09:57:21;0.6;;;0.6;;
74788;SDS011;63313;48.258;12.518;2023-02-18T10:02:53;0.6900000000000001;;;0.5999999999999999;;
74788;SDS011;63313;48.258;12.518;2023-02-18T10:08:22;0.85;;;0.85;;
74788;SDS011;63313;48.258;12.518;2023-02-18T10:13:50;1.41;;;0.7;;
74788;SDS011;63313;48.258;12.518;2023-02-18T10:19:19;0.77;;;0.77;;
74788;SDS011;63313;48.258;12.518;2023-02-18T10:24:47;0.6499999999999999;;;0.6499999999999999;;
74788;SDS011;63313;48.258;12.518;2023-02-18T10:30:18;0.72;;;0.72;;
74788;SDS011;63313;48.258;12.518;2023-02-18T10:35:48;0.8400000000000001;;;0.8099999999999999;;
74788;SDS011;63313;48.258;12.518;2023-02-18T10:41:19;0.9;;;0.7699999999999999;;
74788;SDS011;63313;48.258;12.518;2023-02-18T10:46:48;2.04;;;0.7300000000000001;;
74788;SDS011;63313;48.258;12.518;2023-02-18T10:52:20;1.7200000000000002;;;1.09;;
74788;SDS011;63313;48.258;12.518;2023-02-18T10:57:48;0.8300000000000001;;;0.8200000000000001;;
74788;SDS011;63313;48.258;12.518;2023-02-18T11:03:16;0.8099999999999999;;;0.8099999999999999;;
74788;SDS011;63313;48.258;12.518;2023-02-18T11:08:45;1.6099999999999999;;;0.73;;
74788;SDS011;63313;48.258;12.518;2023-02-18T11:14:12;0.61;;;0.61;;
74788;SDS011;63313;48.258;12.518;2023-02-18T11:19:42;0.79;;;0.6799999999999999;;
74788;SDS011;63313;48.258;12.518;2023-02-18T11:25:17;1.2;;;0.76;;
74788;SDS011;63313;48.258;12.518;2023-02-18T11:30:45;0.65;;;0.65;;
74788;SDS011;63313;48.258;12.518;2023-02-18T11:36:16;1.65;;;0.9;;
74788;SDS011;63313;48.258;12.518;2023-02-18T11:41:45;2.4400000000000004;;;0.62;;
74788;SDS011;63313;48.258;12.518;2023-02-18T11:47:21;0.9100000000000001;;;0.86;;
74788;SDS011;63313;48.258;12.518;2023-02-18T11:52:49;0.78;;;0.75;;
74788;SDS011;63313;48.258;12.518;2023-02-18T11:58:17;1.16;;;0.9700000000000001;;
74788;SDS011;63313;48.258;12.518;2023-02-18T12:03:45;0.75;;;0.75;;
74788;SDS011;63313;48.258;12.518;2023-02-18T12:09:19;1.31;;;0.78;;
74788;SDS011;63313;48.258;12.518;2023-02-18T12:14:48;0.78;;;0.78;;
74788;SDS011;63313;48.258;12.518;2023-02-18T12:20:48;0.75;;;0.75;;
74788;SDS011;63313;48.258;12.518;2023-02-18T12:26:20;1.28;;;0.96;;
74788;SDS011;63313;48.258;12.518;2023-02-18T12:31:52;1.42;;;0.8099999999999999;;
74788;SDS011;63313;48.258;12.518;2023-02-18T12:37:31;0.71;;;0.71;;
74788;SDS011;63313;48.258;12.518;2023-02-18T12:43:05;1.3199999999999998;;;0.74;;
74788;SDS011;63313;48.258;12.518;2023-02-18T12:48:39;1.77;;;0.79;;
74788;SDS011;63313;48.258;12.518;2023-02-18T12:54:14;0.67;;;0.63;;
74788;SDS011;63313;48.258;12.518;2023-02-18T12:59:49;0.6599999999999999;;;0.6599999999999999;;
74788;SDS011;63313;48.258;12.518;2023-02-18T13:05:22;0.75;;;0.6799999999999999;;
74788;SDS011;63313;48.258;12.518;2023-02-18T13:10:55;0.78;;;0.75;;
74788;SDS011;63313;48.258;12.518;2023-02-18T13:16:26;0.65;;;0.62;;
74788;SDS011;63313;48.258;12.518;2023-02-18T13:21:55;0.8100000000000002;;;0.5499999999999999;;
74788;SDS011;63313;48.258;12.518;2023-02-18T13:27:27;0.9100000000000001;;;0.9000000000000001;;
74788;SDS011;63313;48.258;12.518;2023-02-18T13:32:59;0.89;;;0.6599999999999999;;
74788;SDS011;63313;48.258;12.518;2023-02-18T13:38:32;2.55;;;0.8;;
74788;SDS011;63313;48.258;12.518;2023-02-18T13:44:07;0.6900000000000001;;;0.6900000000000001;;
74788;SDS011;63313;48.258;12.518;2023-02-18T13:49:36;0.53;;;0.53;;
74788;SDS011;63313;48.258;12.518;2023-02-18T13:56:57;0.78;;;0.78;;
74788;SDS011;63313;48.258;12.518;2023-02-18T14:02:28;0.57;;;0.57;;
74788;SDS011;63313;48.258;12.518;2023-02-18T14:08:04;0.7300000000000001;;;0.7300000000000001;;
74788;SDS011;63313;48.258;12.518;2023-02-18T14:13:39;0.6799999999999999;;;0.5899999999999999;;
74788;SDS011;63313;48.258;12.518;2023-02-18T14:19:22;1.4300000000000002;;;0.8699999999999999;;
74788;SDS011;63313;48.258;12.518;2023-02-18T14:24:55;0.89;;;0.85;;
74788;SDS011;63313;48.258;12.518;2023-02-18T14:30:23;2.52;;;0.8099999999999999;;
74788;SDS011;63313;48.258;12.518;2023-02-18T14:35:51;0.6300000000000001;;;0.62;;
74788;SDS011;63313;48.258;12.518;2023-02-18T14:41:25;0.68;;;0.68;;
74788;SDS011;63313;48.258;12.518;2023-02-18T14:47:01;1.1;;;0.89;;
74788;SDS011;63313;48.258;12.518;2023-02-18T14:52:32;0.78;;;0.76;;
74788;SDS011;63313;48.258;12.518;2023-02-18T14:58:00;0.6900000000000001;;;0.68;;
74788;SDS011;63313;48.258;12.518;2023-02-18T15:03:27;1.6300000000000001;;;0.71;;
74788;SDS011;63313;48.258;12.518;2023-02-18T15:08:54;2.1;;;0.7;;
74788;SDS011;63313;48.258;12.518;2023-02-18T15:14:23;1.56;;;0.9600000000000002;;
74788;SDS011;63313;48.258;12.518;2023-02-18T15:19:51;1.16;;;0.86;;
74788;SDS011;63313;48.258;12.518;2023-02-18T15:25:19;0.9500000000000002;;;0.78;;
74788;SDS011;63313;48.258;12.518;2023-02-18T15:30:46;0.8400000000000001;;;0.8400000000000001;;
74788;SDS011;63313;48.258;12.518;2023-02-18T15:36:13;0.8300000000000001;;;0.8300000000000001;;
74788;SDS011;63313;48.258;12.518;2023-02-18T15:41:40;0.8600000000000001;;;0.79;;
74788;SDS011;63313;48.258;12.518;2023-02-18T15:47:07;0.7699999999999999;;;0.7300000000000001;;
74788;SDS011;63313;48.258;12.518;2023-02-18T15:52:36;0.72;;;0.72;;
74788;SDS011;63313;48.258;12.518;2023-02-18T15:58:04;0.5899999999999999;;;0.5899999999999999;;
74788;SDS011;63313;48.258;12.518;2023-02-18T16:03:36;0.9400000000000002;;;0.67;;
74788;SDS011;63313;48.258;12.518;2023-02-18T16:09:11;1.5399999999999998;;;0.6199999999999999;;
74788;SDS011;63313;48.258;12.518;2023-02-18T16:14:41;0.74;;;0.74;;
74788;SDS011;63313;48.258;12.518;2023-02-18T16:20:14;0.7899999999999998;;;0.6599999999999999;;
74788;SDS011;63313;48.258;12.518;2023-02-18T16:25:42;0.8400000000000001;;;0.8400000000000001;;
74788;SDS011;63313;48.258;12.518;2023-02-18T16:31:10;2.05;;;0.72;;
74788;SDS011;63313;48.258;12.518;2023-02-18T16:36:37;0.8099999999999999;;;0.8099999999999999;;
74788;SDS011;63313;48.258;12.518;2023-02-18T16:42:04;1.2899999999999998;;;0.8800000000000001;;
74788;SDS011;63313;48.258;12.518;2023-02-18T16:47:34;1.3599999999999999;;;0.96;;
74788;SDS011;63313;48.258;12.518;2023-02-18T16:53:01;2.3600000000000003;;;1.15;;
74788;SDS011;63313;48.258;12.518;2023-02-18T16:58:28;1.44;;;1.16;;
74788;SDS011;63313;48.258;12.518;2023-02-18T17:03:55;1.4;;;0.9199999999999999;;
74788;SDS011;63313;48.258;12.518;2023-02-18T17:09:23;0.93;;;0.93;;
74788;SDS011;63313;48.258;12.518;2023-02-18T17:14:50;1.89;;;1.06;;
74788;SDS011;63313;48.258;12.518;2023-02-18T17:20:17;1.06;;;0.97;;
74788;SDS011;63313;48.258;12.518;2023-02-18T17:25:44;0.96;;;0.96;;
74788;SDS011;63313;48.258;12.518;2023-02-18T17:31:13;1.06;;;1.01;;
74788;SDS011;63313;48.258;12.518;2023-02-18T17:36:41;1.72;;;1.1;;
74788;SDS011;63313;48.258;12.518;2023-02-18T17:42:08;1.0399999999999998;;;0.9800000000000001;;
74788;SDS011;63313;48.258;12.518;2023-02-18T17:47:35;1.0299999999999998;;;1.0;;
74788;SDS011;63313;48.258;12.518;2023-02-18T17:53:02;1.1;;;0.95;;
74788;SDS011;63313;48.258;12.518;2023-02-18T17:58:29;1.64;;;0.99;;
74788;SDS011;63313;48.258;12.518;2023-02-18T18:03:56;3.8899999999999997;;;1.2899999999999998;;
74788;SDS011;63313;48.258;12.518;2023-02-18T18:09:23;1.41;;;0.8300000000000001;;
74788;SDS011;63313;48.258;12.518;2023-02-18T18:14:50;2.37;;;0.9800000000000001;;
74788;SDS011;63313;48.258;12.518;2023-02-18T18:20:18;1.06;;;0.8800000000000001;;
74788;SDS011;63313;48.258;12.518;2023-02-18T18:25:48;1.15;;;1.04;;
74788;SDS011;63313;48.258;12.518;2023-02-18T18:31:15;1.16;;;0.93;;
74788;SDS011;63313;48.258;12.518;2023-02-18T18:36:43;0.86;;;0.82;;
74788;SDS011;63313;48.258;12.518;2023-02-18T18:42:10;1.73;;;1.15;;
74788;SDS011;63313;48.258;12.518;2023-02-18T18:47:37;2.6999999999999997;;;1.2900000000000003;;
74788;SDS011;63313;48.258;12.518;2023-02-18T18:53:04;2.7600000000000002;;;1.03;;
74788;SDS011;63313;48.258;12.518;2023-02-18T18:58:32;3.34;;;1.1599999999999997;;
74788;SDS011;63313;48.258;12.518;2023-02-18T19:03:59;1.11;;;0.9800000000000001;;
74788;SDS011;63313;48.258;12.518;2023-02-18T19:09:26;0.82;;;0.82;;
74788;SDS011;63313;48.258;12.518;2023-02-18T19:14:53;1.1099999999999999;;;0.9800000000000001;;
74788;SDS011;63313;48.258;12.518;2023-02-18T19:20:22;1.5399999999999998;;;1.22;;
74788;SDS011;63313;48.258;12.518;2023-02-18T19:25:49;1.1600000000000001;;;1.0899999999999999;;
74788;SDS011;63313;48.258;12.518;2023-02-18T19:31:16;1.04;;;1.04;;
74788;SDS011;63313;48.258;12.518;2023-02-18T19:36:43;1.09;;;1.06;;
74788;SDS011;63313;48.258;12.518;2023-02-18T19:42:10;0.85;;;0.8400000000000001;;
74788;SDS011;63313;48.258;12.518;2023-02-18T19:47:37;1.4;;;1.3000000000000003;;
74788;SDS011;63313;48.258;12.518;2023-02-18T19:53:04;1.05;;;1.05;;
74788;SDS011;63313;48.258;12.518;2023-02-18T19:58:31;1.23;;;1.15;;
74788;SDS011;63313;48.258;12.518;2023-02-18T20:03:58;1.2099999999999997;;;1.17;;
74788;SDS011;63313;48.258;12.518;2023-02-18T20:09:25;1.12;;;1.0699999999999998;;
74788;SDS011;63313;48.258;12.518;2023-02-18T20:14:53;1.05;;;0.8400000000000001;;
74788;SDS011;63313;48.258;12.518;2023-02-18T20:20:20;1.83;;;1.03;;
74788;SDS011;63313;48.258;12.518;2023-02-18T20:25:47;1.1400000000000001;;;1.09;;
74788;SDS011;63313;48.258;12.518;2023-02-18T20:31:14;1.8500000000000003;;;1.1099999999999999;;
74788;SDS011;63313;48.258;12.518;2023-02-18T20:36:41;1.28;;;1.2100000000000002;;
74788;SDS011;63313;48.258;12.518;2023-02-18T20:42:08;1.4;;;1.31;;
74788;SDS011;63313;48.258;12.518;2023-02-18T20:47:35;1.17;;;1.15;;
74788;SDS011;63313;48.258;12.518;2023-02-18T20:53:02;1.18;;;0.99;;
74788;SDS011;63313;48.258;12.518;2023-02-18T20:58:29;1.3800000000000001;;;1.2799999999999998;;
74788;SDS011;63313;48.258;12.518;2023-02-18T21:03:57;0.9099999999999999;;;0.8400000000000001;;
74788;SDS011;63313;48.258;12.518;2023-02-18T21:09:24;3.849999999999999;;;1.16;;
74788;SDS011;63313;48.258;12.518;2023-02-18T21:14:51;1.3;;;1.2500000000000002;;
74788;SDS011;63313;48.258;12.518;2023-02-18T21:20:18;1.3900000000000001;;;1.31;;
74788;SDS011;63313;48.258;12.518;2023-02-18T21:25:45;1.1799999999999997;;;1.1799999999999997;;
74788;SDS011;63313;48.258;12.518;2023-02-18T21:31:13;1.2400000000000002;;;1.17;;
74788;SDS011;63313;48.258;12.518;2023-02-18T21:36:41;1.2800000000000002;;;1.21;;
74788;SDS011;63313;48.258;12.518;2023-02-18T21:42:08;1.3000000000000003;;;1.2;;
74788;SDS011;63313;48.258;12.518;2023-02-18T21:47:35;2.1999999999999997;;;1.4600000000000002;;
74788;SDS011;63313;48.258;12.518;2023-02-18T21:53:02;1.14;;;1.1299999999999997;;
74788;SDS011;63313;48.258;12.518;2023-02-18T21:58:30;1.48;;;1.35;;
74788;SDS011;63313;48.258;12.518;2023-02-18T22:03:57;3.499999999999999;;;1.4699999999999998;;
74788;SDS011;63313;48.258;12.518;2023-02-18T22:09:24;1.4899999999999998;;;1.3900000000000001;;
74788;SDS011;63313;48.258;12.518;2023-02-18T22:14:51;1.37;;;1.25;;
74788;SDS011;63313;48.258;12.518;2023-02-18T22:20:18;1.57;;;1.4700000000000002;;
74788;SDS011;63313;48.258;12.518;2023-02-18T22:25:45;1.4499999999999997;;;1.3400000000000003;;
74788;SDS011;63313;48.258;12.518;2023-02-18T22:31:12;1.72;;;1.5699999999999998;;
74788;SDS011;63313;48.258;12.518;2023-02-18T22:36:39;2.95;;;2.01;;
74788;SDS011;63313;48.258;12.518;2023-02-18T22:42:06;1.24;;;1.24;;
74788;SDS011;63313;48.258;12.518;2023-02-18T22:47:33;1.5899999999999999;;;1.4899999999999998;;
74788;SDS011;63313;48.258;12.518;2023-02-18T22:53:00;1.24;;;1.22;;
74788;SDS011;63313;48.258;12.518;2023-02-18T22:58:27;1.4100000000000001;;;1.31;;
74788;SDS011;63313;48.258;12.518;2023-02-18T23:03:55;1.29;;;1.27;;
74788;SDS011;63313;48.258;12.518;2023-02-18T23:09:23;1.27;;;1.21;;
74788;SDS011;63313;48.258;12.518;2023-02-18T23:14:50;1.95;;;1.45;;
74788;SDS011;63313;48.258;12.518;2023-02-18T23:20:17;1.3200000000000003;;;1.1799999999999997;;
74788;SDS011;63313;48.258;12.518;2023-02-18T23:25:44;3.07;;;1.3800000000000001;;
74788;SDS011;63313;48.258;12.518;2023-02-18T23:31:12;2.8099999999999996;;;1.5799999999999998;;
74788;SDS011;63313;48.258;12.518;2023-02-18T23:36:39;2.3099999999999996;;;2.1100000000000003;;
74788;SDS011;63313;48.258;12.518;2023-02-18T23:42:06;1.94;;;1.8400000000000003;;
74788;SDS011;63313;48.258;12.518;2023-02-18T23:47:34;4.86;;;1.77;;
74788;SDS011;63313;48.258;12.518;2023-02-18T23:53:01;1.95;;;1.53;;
74788;SDS011;63313;48.258;12.518;2023-02-18T23:58:28;4.7299999999999995;;;1.58;;
